sensor_id;sensor_type;location;lat;lon;timestamp;pressure;altitude;pressure_sealevel;temperature;humidity
9261;BME280;4667;42.726;23.252;2023-09-18T00:00:22;95710.28;;;17.56;69.30
9261;BME280;4667;42.726;23.252;2023-09-18T00:02:49;95715.50;;;17.37;69.57
9261;BME280;4667;42.726;23.252;2023-09-18T00:05:16;95710.16;;;17.37;69.45
9261;BME280;4667;42.726;23.252;2023-09-18T00:07:44;95700.63;;;17.31;69.83
9261;BME280;4667;42.726;23.252;2023-09-18T00:10:11;95469.06;;;15.82;69.33
9261;BME280;4667;42.726;23.252;2023-09-18T00:12:39;95703.13;;;17.12;70.16
9261;BME280;4667;42.726;23.252;2023-09-18T00:15:07;95701.22;;;17.18;70.12
9261;BME280;4667;42.726;23.252;2023-09-18T00:17:35;95657.22;;;16.86;70.17
9261;BME280;4667;42.726;23.252;2023-09-18T00:20:02;95684.59;;;16.97;70.50
9261;BME280;4667;42.726;23.252;2023-09-18T00:22:32;95483.22;;;15.68;70.22
9261;BME280;4667;42.726;23.252;2023-09-18T00:25:00;95702.72;;;16.95;70.80
9261;BME280;4667;42.726;23.252;2023-09-18T00:27:28;95550.16;;;15.85;70.66
9261;BME280;4667;42.726;23.252;2023-09-18T00:29:55;95679.63;;;16.80;70.92
9261;BME280;4667;42.726;23.252;2023-09-18T00:32:22;95704.09;;;16.87;71.29
9261;BME280;4667;42.726;23.252;2023-09-18T00:34:50;95704.38;;;16.85;71.39
9261;BME280;4667;42.726;23.252;2023-09-18T00:37:17;95545.38;;;15.87;71.27
9261;BME280;4667;42.726;23.252;2023-09-18T00:39:44;95672.72;;;16.79;70.88
9261;BME280;4667;42.726;23.252;2023-09-18T00:42:12;95704.34;;;16.91;71.24
9261;BME280;4667;42.726;23.252;2023-09-18T00:44:41;95711.28;;;16.86;71.34
9261;BME280;4667;42.726;23.252;2023-09-18T00:47:08;95707.84;;;16.81;71.09
9261;BME280;4667;42.726;23.252;2023-09-18T00:49:36;95714.28;;;16.75;71.37
9261;BME280;4667;42.726;23.252;2023-09-18T00:52:06;95712.91;;;16.82;71.14
9261;BME280;4667;42.726;23.252;2023-09-18T00:54:34;95510.91;;;15.46;71.28
9261;BME280;4667;42.726;23.252;2023-09-18T00:57:03;95711.63;;;16.75;72.10
9261;BME280;4667;42.726;23.252;2023-09-18T00:59:31;95714.25;;;16.80;71.81
9261;BME280;4667;42.726;23.252;2023-09-18T01:01:59;95717.47;;;16.77;72.02
9261;BME280;4667;42.726;23.252;2023-09-18T01:04:26;95713.75;;;16.68;72.10
9261;BME280;4667;42.726;23.252;2023-09-18T01:06:55;95726.47;;;16.86;71.66
9261;BME280;4667;42.726;23.252;2023-09-18T01:09:22;95711.81;;;16.83;71.45
9261;BME280;4667;42.726;23.252;2023-09-18T01:11:53;95724.31;;;16.88;71.73
9261;BME280;4667;42.726;23.252;2023-09-18T01:14:27;95656.81;;;16.58;71.38
9261;BME280;4667;42.726;23.252;2023-09-18T01:16:58;95718.22;;;16.82;72.03
9261;BME280;4667;42.726;23.252;2023-09-18T01:19:42;95722.19;;;16.90;71.79
9261;BME280;4667;42.726;23.252;2023-09-18T01:22:11;95410.88;;;15.01;71.37
9261;BME280;4667;42.726;23.252;2023-09-18T01:24:40;95676.97;;;16.80;71.17
9261;BME280;4667;42.726;23.252;2023-09-18T01:27:09;95700.06;;;16.95;71.17
9261;BME280;4667;42.726;23.252;2023-09-18T01:29:36;95720.00;;;16.97;71.25
9261;BME280;4667;42.726;23.252;2023-09-18T01:32:03;95718.44;;;16.96;71.16
9261;BME280;4667;42.726;23.252;2023-09-18T01:34:33;95657.91;;;16.47;71.36
9261;BME280;4667;42.726;23.252;2023-09-18T01:37:02;95716.06;;;16.89;71.61
9261;BME280;4667;42.726;23.252;2023-09-18T01:39:31;95716.34;;;16.83;71.72
9261;BME280;4667;42.726;23.252;2023-09-18T01:42:01;95535.34;;;15.53;71.48
9261;BME280;4667;42.726;23.252;2023-09-18T01:44:29;95679.19;;;16.52;71.77
9261;BME280;4667;42.726;23.252;2023-09-18T01:46:58;95521.81;;;15.40;71.95
9261;BME280;4667;42.726;23.252;2023-09-18T01:49:29;95569.59;;;15.70;72.10
9261;BME280;4667;42.726;23.252;2023-09-18T01:51:56;95478.59;;;15.03;72.50
9261;BME280;4667;42.726;23.252;2023-09-18T01:54:23;95593.78;;;15.84;72.34
9261;BME280;4667;42.726;23.252;2023-09-18T01:56:50;95726.00;;;16.74;72.09
9261;BME280;4667;42.726;23.252;2023-09-18T01:59:19;95566.69;;;15.62;72.35
9261;BME280;4667;42.726;23.252;2023-09-18T02:01:46;95725.50;;;16.61;72.35
9261;BME280;4667;42.726;23.252;2023-09-18T02:04:12;95726.25;;;16.67;71.93
9261;BME280;4667;42.726;23.252;2023-09-18T02:06:39;95719.09;;;16.62;72.28
9261;BME280;4667;42.726;23.252;2023-09-18T02:09:06;95652.22;;;16.04;72.19
9261;BME280;4667;42.726;23.252;2023-09-18T02:11:36;95633.38;;;15.96;72.20
9261;BME280;4667;42.726;23.252;2023-09-18T02:14:04;95707.69;;;16.47;72.30
9261;BME280;4667;42.726;23.252;2023-09-18T02:16:34;95723.94;;;16.50;72.37
9261;BME280;4667;42.726;23.252;2023-09-18T02:19:01;95713.59;;;16.38;72.49
9261;BME280;4667;42.726;23.252;2023-09-18T02:21:28;95516.06;;;15.02;72.55
9261;BME280;4667;42.726;23.252;2023-09-18T02:23:55;95732.25;;;16.33;73.06
9261;BME280;4667;42.726;23.252;2023-09-18T02:26:23;95577.38;;;15.51;72.69
9261;BME280;4667;42.726;23.252;2023-09-18T02:28:51;95739.91;;;16.50;72.67
9261;BME280;4667;42.726;23.252;2023-09-18T02:31:20;95682.56;;;16.03;73.14
9261;BME280;4667;42.726;23.252;2023-09-18T02:33:49;95729.03;;;16.36;73.09
9261;BME280;4667;42.726;23.252;2023-09-18T02:36:16;95694.00;;;16.09;73.11
9261;BME280;4667;42.726;23.252;2023-09-18T02:38:43;95563.53;;;15.39;73.03
9261;BME280;4667;42.726;23.252;2023-09-18T02:41:10;95689.75;;;16.13;73.64
9261;BME280;4667;42.726;23.252;2023-09-18T02:43:37;95710.69;;;16.30;73.01
9261;BME280;4667;42.726;23.252;2023-09-18T02:46:04;95716.28;;;16.33;73.28
9261;BME280;4667;42.726;23.252;2023-09-18T02:48:31;95686.28;;;16.13;73.47
9261;BME280;4667;42.726;23.252;2023-09-18T02:51:00;95676.44;;;16.08;73.01
9261;BME280;4667;42.726;23.252;2023-09-18T02:53:27;95724.28;;;16.33;73.22
9261;BME280;4667;42.726;23.252;2023-09-18T02:55:55;95694.47;;;16.26;72.94
9261;BME280;4667;42.726;23.252;2023-09-18T02:58:22;95730.88;;;16.41;73.21
9261;BME280;4667;42.726;23.252;2023-09-18T03:00:52;95729.28;;;16.45;72.83
9261;BME280;4667;42.726;23.252;2023-09-18T03:03:19;95727.94;;;16.48;72.80
9261;BME280;4667;42.726;23.252;2023-09-18T03:05:45;95747.13;;;16.45;72.83
9261;BME280;4667;42.726;23.252;2023-09-18T03:08:14;95736.75;;;16.43;72.75
9261;BME280;4667;42.726;23.252;2023-09-18T03:10:42;95731.97;;;16.40;73.04
9261;BME280;4667;42.726;23.252;2023-09-18T03:13:10;95737.56;;;16.38;73.02
9261;BME280;4667;42.726;23.252;2023-09-18T03:15:37;95741.81;;;16.45;72.78
9261;BME280;4667;42.726;23.252;2023-09-18T03:18:05;95642.72;;;15.88;72.90
9261;BME280;4667;42.726;23.252;2023-09-18T03:20:32;95734.63;;;16.35;73.38
9261;BME280;4667;42.726;23.252;2023-09-18T03:23:01;95723.19;;;16.40;73.22
9261;BME280;4667;42.726;23.252;2023-09-18T03:25:29;95727.69;;;16.44;72.93
9261;BME280;4667;42.726;23.252;2023-09-18T03:27:57;95670.31;;;16.13;73.04
9261;BME280;4667;42.726;23.252;2023-09-18T03:30:24;95721.81;;;16.47;72.84
9261;BME280;4667;42.726;23.252;2023-09-18T03:32:52;95537.81;;;15.19;73.12
9261;BME280;4667;42.726;23.252;2023-09-18T03:35:19;95511.25;;;15.14;72.86
9261;BME280;4667;42.726;23.252;2023-09-18T03:37:47;95684.59;;;16.32;72.91
9261;BME280;4667;42.726;23.252;2023-09-18T03:40:14;95724.44;;;16.57;73.13
9261;BME280;4667;42.726;23.252;2023-09-18T03:42:42;95562.44;;;15.66;72.82
9261;BME280;4667;42.726;23.252;2023-09-18T03:45:10;95712.72;;;16.63;73.04
9261;BME280;4667;42.726;23.252;2023-09-18T03:47:38;95615.00;;;15.99;72.90
9261;BME280;4667;42.726;23.252;2023-09-18T03:50:06;95705.50;;;16.69;73.11
9261;BME280;4667;42.726;23.252;2023-09-18T03:52:33;95593.22;;;15.97;72.84
9261;BME280;4667;42.726;23.252;2023-09-18T03:55:00;95707.63;;;16.72;72.78
9261;BME280;4667;42.726;23.252;2023-09-18T03:57:27;95669.63;;;16.46;72.93
9261;BME280;4667;42.726;23.252;2023-09-18T03:59:55;95682.09;;;16.61;72.79
9261;BME280;4667;42.726;23.252;2023-09-18T04:02:24;95707.59;;;16.77;72.75
9261;BME280;4667;42.726;23.252;2023-09-18T04:04:51;95615.47;;;16.17;72.65
9261;BME280;4667;42.726;23.252;2023-09-18T04:07:18;95714.25;;;16.80;72.82
9261;BME280;4667;42.726;23.252;2023-09-18T04:09:45;95701.16;;;16.83;72.24
9261;BME280;4667;42.726;23.252;2023-09-18T04:12:12;95705.69;;;16.83;72.10
9261;BME280;4667;42.726;23.252;2023-09-18T04:14:40;95675.72;;;16.52;72.25
9261;BME280;4667;42.726;23.252;2023-09-18T04:17:08;95341.97;;;14.40;72.21
9261;BME280;4667;42.726;23.252;2023-09-18T04:19:35;95623.69;;;16.20;72.20
9261;BME280;4667;42.726;23.252;2023-09-18T04:22:02;95721.19;;;16.81;72.19
9261;BME280;4667;42.726;23.252;2023-09-18T04:24:29;95732.66;;;16.76;72.12
9261;BME280;4667;42.726;23.252;2023-09-18T04:26:55;95693.59;;;16.46;72.13
9261;BME280;4667;42.726;23.252;2023-09-18T04:29:22;95729.22;;;16.60;72.26
9261;BME280;4667;42.726;23.252;2023-09-18T04:31:49;95719.13;;;16.52;72.23
9261;BME280;4667;42.726;23.252;2023-09-18T04:34:17;95657.53;;;16.09;72.44
9261;BME280;4667;42.726;23.252;2023-09-18T04:36:44;95524.03;;;15.07;72.64
9261;BME280;4667;42.726;23.252;2023-09-18T04:39:11;95731.16;;;16.45;72.79
9261;BME280;4667;42.726;23.252;2023-09-18T04:41:39;95695.00;;;16.28;72.42
9261;BME280;4667;42.726;23.252;2023-09-18T04:44:06;95678.47;;;16.31;72.21
9261;BME280;4667;42.726;23.252;2023-09-18T04:46:33;95730.84;;;16.51;72.73
9261;BME280;4667;42.726;23.252;2023-09-18T04:49:01;95728.97;;;16.57;72.50
9261;BME280;4667;42.726;23.252;2023-09-18T04:51:31;95731.59;;;16.62;72.39
9261;BME280;4667;42.726;23.252;2023-09-18T04:53:58;95725.50;;;16.61;72.33
9261;BME280;4667;42.726;23.252;2023-09-18T04:56:25;95669.69;;;16.31;72.12
9261;BME280;4667;42.726;23.252;2023-09-18T04:58:52;95714.81;;;16.67;71.97
9261;BME280;4667;42.726;23.252;2023-09-18T05:01:38;95729.19;;;16.76;72.22
9261;BME280;4667;42.726;23.252;2023-09-18T05:04:18;95724.13;;;16.79;72.20
9261;BME280;4667;42.726;23.252;2023-09-18T05:06:46;95730.41;;;16.94;71.94
9261;BME280;4667;42.726;23.252;2023-09-18T05:09:13;95722.94;;;17.01;71.65
9261;BME280;4667;42.726;23.252;2023-09-18T05:11:40;95727.44;;;17.05;71.50
9261;BME280;4667;42.726;23.252;2023-09-18T05:14:07;95714.13;;;17.05;71.66
9261;BME280;4667;42.726;23.252;2023-09-18T05:16:34;95726.84;;;17.13;70.94
9261;BME280;4667;42.726;23.252;2023-09-18T05:19:01;95728.69;;;17.18;70.39
9261;BME280;4667;42.726;23.252;2023-09-18T05:21:28;95735.34;;;17.21;70.40
9261;BME280;4667;42.726;23.252;2023-09-18T05:23:56;95729.94;;;17.31;69.89
9261;BME280;4667;42.726;23.252;2023-09-18T05:26:23;95736.28;;;17.35;70.00
9261;BME280;4667;42.726;23.252;2023-09-18T05:28:50;95743.75;;;17.38;69.75
9261;BME280;4667;42.726;23.252;2023-09-18T05:31:19;95743.22;;;17.41;69.59
9261;BME280;4667;42.726;23.252;2023-09-18T05:33:45;95738.09;;;17.45;69.48
9261;BME280;4667;42.726;23.252;2023-09-18T05:36:12;95736.16;;;17.55;69.28
9261;BME280;4667;42.726;23.252;2023-09-18T05:38:39;95736.75;;;17.47;69.47
9261;BME280;4667;42.726;23.252;2023-09-18T05:41:07;95738.78;;;17.60;69.61
9261;BME280;4667;42.726;23.252;2023-09-18T05:43:35;95743.22;;;17.75;69.05
9261;BME280;4667;42.726;23.252;2023-09-18T05:46:01;95745.09;;;17.70;69.42
9261;BME280;4667;42.726;23.252;2023-09-18T05:48:28;95744.97;;;17.90;68.67
9261;BME280;4667;42.726;23.252;2023-09-18T05:50:56;95736.38;;;17.98;68.44
9261;BME280;4667;42.726;23.252;2023-09-18T05:53:23;95742.78;;;17.97;67.88
9261;BME280;4667;42.726;23.252;2023-09-18T05:55:51;95744.91;;;17.95;68.25
9261;BME280;4667;42.726;23.252;2023-09-18T05:58:20;95741.94;;;18.26;67.59
9261;BME280;4667;42.726;23.252;2023-09-18T06:00:50;95741.19;;;18.49;66.71
9261;BME280;4667;42.726;23.252;2023-09-18T06:03:16;95734.97;;;18.54;66.14
9261;BME280;4667;42.726;23.252;2023-09-18T06:05:45;95741.03;;;18.83;65.72
9261;BME280;4667;42.726;23.252;2023-09-18T06:08:12;95726.13;;;19.01;65.28
9261;BME280;4667;42.726;23.252;2023-09-18T06:10:38;95737.09;;;19.18;64.65
9261;BME280;4667;42.726;23.252;2023-09-18T06:13:05;95735.38;;;19.28;63.97
9261;BME280;4667;42.726;23.252;2023-09-18T06:15:33;95733.78;;;19.45;63.56
9261;BME280;4667;42.726;23.252;2023-09-18T06:18:00;95734.06;;;19.63;63.56
9261;BME280;4667;42.726;23.252;2023-09-18T06:20:27;95741.38;;;19.76;63.63
9261;BME280;4667;42.726;23.252;2023-09-18T06:22:54;95744.84;;;19.90;61.99
9261;BME280;4667;42.726;23.252;2023-09-18T06:25:20;95732.25;;;19.91;62.43
9261;BME280;4667;42.726;23.252;2023-09-18T06:27:47;95740.44;;;20.13;60.88
9261;BME280;4667;42.726;23.252;2023-09-18T06:30:14;95739.19;;;20.38;60.26
9261;BME280;4667;42.726;23.252;2023-09-18T06:32:42;95748.47;;;20.60;59.97
9261;BME280;4667;42.726;23.252;2023-09-18T06:35:10;95748.84;;;20.81;59.41
9261;BME280;4667;42.726;23.252;2023-09-18T06:37:36;95740.59;;;20.91;58.13
9261;BME280;4667;42.726;23.252;2023-09-18T06:40:03;95739.69;;;20.95;57.31
9261;BME280;4667;42.726;23.252;2023-09-18T06:42:31;95725.19;;;20.83;57.72
9261;BME280;4667;42.726;23.252;2023-09-18T06:44:58;95712.78;;;21.00;57.58
9261;BME280;4667;42.726;23.252;2023-09-18T06:47:26;95736.34;;;21.40;57.41
9261;BME280;4667;42.726;23.252;2023-09-18T06:49:54;95739.19;;;21.43;56.31
9261;BME280;4667;42.726;23.252;2023-09-18T06:52:21;95740.00;;;21.44;55.91
9261;BME280;4667;42.726;23.252;2023-09-18T06:54:48;95742.72;;;21.66;55.57
9261;BME280;4667;42.726;23.252;2023-09-18T06:57:14;95735.75;;;21.88;55.71
9261;BME280;4667;42.726;23.252;2023-09-18T06:59:41;95738.41;;;21.88;55.10
9261;BME280;4667;42.726;23.252;2023-09-18T07:02:08;95738.59;;;22.14;55.30
9261;BME280;4667;42.726;23.252;2023-09-18T07:04:35;95733.69;;;22.16;54.12
9261;BME280;4667;42.726;23.252;2023-09-18T07:07:03;95737.88;;;22.22;53.29
9261;BME280;4667;42.726;23.252;2023-09-18T07:09:30;95741.06;;;22.33;53.37
9261;BME280;4667;42.726;23.252;2023-09-18T07:11:57;95733.53;;;22.43;53.48
9261;BME280;4667;42.726;23.252;2023-09-18T07:14:24;95736.88;;;22.49;53.11
9261;BME280;4667;42.726;23.252;2023-09-18T07:16:50;95691.69;;;22.20;52.69
9261;BME280;4667;42.726;23.252;2023-09-18T07:19:17;95711.56;;;22.50;52.14
9261;BME280;4667;42.726;23.252;2023-09-18T07:21:44;95743.13;;;22.75;52.52
9261;BME280;4667;42.726;23.252;2023-09-18T07:24:12;95744.69;;;22.76;52.07
9261;BME280;4667;42.726;23.252;2023-09-18T07:26:44;95740.94;;;22.86;51.69
9261;BME280;4667;42.726;23.252;2023-09-18T07:29:12;95745.56;;;23.03;51.22
9261;BME280;4667;42.726;23.252;2023-09-18T07:31:40;95749.69;;;23.00;51.81
9261;BME280;4667;42.726;23.252;2023-09-18T07:34:07;95745.44;;;23.08;50.72
9261;BME280;4667;42.726;23.252;2023-09-18T07:36:34;95734.22;;;23.23;50.61
9261;BME280;4667;42.726;23.252;2023-09-18T07:39:01;95744.22;;;23.40;50.49
9261;BME280;4667;42.726;23.252;2023-09-18T07:41:29;95743.75;;;23.29;49.99
9261;BME280;4667;42.726;23.252;2023-09-18T07:43:56;95741.22;;;23.68;49.65
9261;BME280;4667;42.726;23.252;2023-09-18T07:46:23;95742.28;;;24.01;48.30
9261;BME280;4667;42.726;23.252;2023-09-18T07:48:50;95741.25;;;24.32;48.38
9261;BME280;4667;42.726;23.252;2023-09-18T07:51:17;95738.50;;;24.87;46.92
9261;BME280;4667;42.726;23.252;2023-09-18T07:53:44;95738.47;;;25.47;45.02
9261;BME280;4667;42.726;23.252;2023-09-18T07:56:10;95732.59;;;25.45;44.41
9261;BME280;4667;42.726;23.252;2023-09-18T07:58:38;95735.41;;;25.48;44.58
9261;BME280;4667;42.726;23.252;2023-09-18T08:01:06;95726.91;;;25.79;44.08
9261;BME280;4667;42.726;23.252;2023-09-18T08:03:34;95743.06;;;25.88;43.44
9261;BME280;4667;42.726;23.252;2023-09-18T08:06:01;95712.03;;;26.06;43.58
9261;BME280;4667;42.726;23.252;2023-09-18T08:08:30;95736.13;;;26.44;42.55
9261;BME280;4667;42.726;23.252;2023-09-18T08:11:00;95735.25;;;26.53;41.10
9261;BME280;4667;42.726;23.252;2023-09-18T08:13:29;95724.63;;;26.96;40.95
9261;BME280;4667;42.726;23.252;2023-09-18T08:15:58;95732.03;;;27.36;39.63
9261;BME280;4667;42.726;23.252;2023-09-18T08:18:24;95711.84;;;27.62;39.47
9261;BME280;4667;42.726;23.252;2023-09-18T08:20:52;95699.22;;;27.66;39.23
9261;BME280;4667;42.726;23.252;2023-09-18T08:23:19;95710.44;;;28.08;38.27
9261;BME280;4667;42.726;23.252;2023-09-18T08:25:46;95714.41;;;28.27;37.35
9261;BME280;4667;42.726;23.252;2023-09-18T08:28:14;95713.22;;;28.71;36.70
9261;BME280;4667;42.726;23.252;2023-09-18T08:30:41;95671.19;;;28.49;37.19
9261;BME280;4667;42.726;23.252;2023-09-18T08:33:11;95716.88;;;28.95;36.59
9261;BME280;4667;42.726;23.252;2023-09-18T08:35:38;95714.00;;;28.72;36.66
9261;BME280;4667;42.726;23.252;2023-09-18T08:38:05;95698.28;;;28.97;35.95
9261;BME280;4667;42.726;23.252;2023-09-18T08:40:33;95702.00;;;29.24;35.56
9261;BME280;4667;42.726;23.252;2023-09-18T08:43:00;95702.69;;;29.56;36.03
9261;BME280;4667;42.726;23.252;2023-09-18T08:45:35;95697.16;;;29.72;34.73
9261;BME280;4667;42.726;23.252;2023-09-18T08:48:05;95704.13;;;29.69;34.27
9261;BME280;4667;42.726;23.252;2023-09-18T08:50:34;95688.09;;;30.07;33.83
9261;BME280;4667;42.726;23.252;2023-09-18T08:53:03;95692.31;;;30.04;34.06
9261;BME280;4667;42.726;23.252;2023-09-18T08:55:30;95686.56;;;30.09;34.18
9261;BME280;4667;42.726;23.252;2023-09-18T08:57:58;95679.94;;;30.07;33.97
9261;BME280;4667;42.726;23.252;2023-09-18T09:00:26;95690.81;;;30.26;33.54
9261;BME280;4667;42.726;23.252;2023-09-18T09:02:52;95680.97;;;30.67;33.05
9261;BME280;4667;42.726;23.252;2023-09-18T09:05:20;95684.50;;;30.94;32.60
9261;BME280;4667;42.726;23.252;2023-09-18T09:07:50;95675.50;;;30.90;31.76
9261;BME280;4667;42.726;23.252;2023-09-18T09:10:17;95678.88;;;31.37;30.89
9261;BME280;4667;42.726;23.252;2023-09-18T09:12:51;95676.94;;;32.04;30.52
9261;BME280;4667;42.726;23.252;2023-09-18T09:15:20;95664.78;;;31.98;30.53
9261;BME280;4667;42.726;23.252;2023-09-18T09:17:47;95672.28;;;32.08;30.27
9261;BME280;4667;42.726;23.252;2023-09-18T09:20:15;95676.13;;;32.41;29.85
9261;BME280;4667;42.726;23.252;2023-09-18T09:22:42;95660.16;;;32.43;29.15
9261;BME280;4667;42.726;23.252;2023-09-18T09:25:26;95669.78;;;32.78;28.65
9261;BME280;4667;42.726;23.252;2023-09-18T09:27:54;95664.22;;;32.64;28.68
9261;BME280;4667;42.726;23.252;2023-09-18T09:30:22;95673.06;;;32.46;28.62
9261;BME280;4667;42.726;23.252;2023-09-18T09:32:51;95667.31;;;32.18;28.53
9261;BME280;4667;42.726;23.252;2023-09-18T09:35:22;95663.84;;;32.21;29.19
9261;BME280;4667;42.726;23.252;2023-09-18T09:37:49;95669.09;;;31.99;28.87
9261;BME280;4667;42.726;23.252;2023-09-18T09:40:19;95645.06;;;31.75;29.27
9261;BME280;4667;42.726;23.252;2023-09-18T09:42:47;95667.66;;;31.75;29.73
9261;BME280;4667;42.726;23.252;2023-09-18T09:45:15;95657.25;;;31.85;28.82
9261;BME280;4667;42.726;23.252;2023-09-18T09:47:43;95648.53;;;32.09;28.20
9261;BME280;4667;42.726;23.252;2023-09-18T09:50:11;95646.84;;;31.97;28.42
9261;BME280;4667;42.726;23.252;2023-09-18T09:52:43;95655.72;;;32.28;28.15
9261;BME280;4667;42.726;23.252;2023-09-18T09:55:21;95649.75;;;32.59;27.62
9261;BME280;4667;42.726;23.252;2023-09-18T09:57:51;95645.22;;;32.30;28.14
9261;BME280;4667;42.726;23.252;2023-09-18T10:00:18;95643.16;;;32.16;28.73
9261;BME280;4667;42.726;23.252;2023-09-18T10:02:56;95639.88;;;32.41;28.10
9261;BME280;4667;42.726;23.252;2023-09-18T10:05:26;95632.09;;;32.98;27.50
9261;BME280;4667;42.726;23.252;2023-09-18T10:07:54;95643.19;;;33.41;26.83
9261;BME280;4667;42.726;23.252;2023-09-18T10:10:24;95634.31;;;33.58;26.85
9261;BME280;4667;42.726;23.252;2023-09-18T10:12:55;95635.72;;;33.27;26.30
9261;BME280;4667;42.726;23.252;2023-09-18T10:15:27;95630.31;;;33.37;25.88
9261;BME280;4667;42.726;23.252;2023-09-18T10:17:56;95625.00;;;33.84;25.90
9261;BME280;4667;42.726;23.252;2023-09-18T10:20:27;95626.91;;;33.73;25.73
9261;BME280;4667;42.726;23.252;2023-09-18T10:22:57;95619.88;;;33.65;25.96
9261;BME280;4667;42.726;23.252;2023-09-18T10:25:29;95617.91;;;33.58;26.20
9261;BME280;4667;42.726;23.252;2023-09-18T10:27:59;95614.41;;;33.65;26.04
9261;BME280;4667;42.726;23.252;2023-09-18T10:30:29;95606.25;;;33.86;25.82
9261;BME280;4667;42.726;23.252;2023-09-18T10:32:56;95604.69;;;33.88;25.67
9261;BME280;4667;42.726;23.252;2023-09-18T10:35:23;95594.94;;;34.27;24.79
9261;BME280;4667;42.726;23.252;2023-09-18T10:37:50;95598.09;;;34.25;24.94
9261;BME280;4667;42.726;23.252;2023-09-18T10:40:20;95594.94;;;34.66;24.66
9261;BME280;4667;42.726;23.252;2023-09-18T10:42:48;95579.22;;;34.95;24.29
9261;BME280;4667;42.726;23.252;2023-09-18T10:45:18;95585.13;;;34.83;23.58
9261;BME280;4667;42.726;23.252;2023-09-18T10:47:46;95585.97;;;34.48;24.15
9261;BME280;4667;42.726;23.252;2023-09-18T10:50:23;95588.31;;;33.99;25.31
9261;BME280;4667;42.726;23.252;2023-09-18T10:52:50;95588.63;;;33.66;24.61
9261;BME280;4667;42.726;23.252;2023-09-18T10:55:17;95574.16;;;33.65;24.66
9261;BME280;4667;42.726;23.252;2023-09-18T10:57:51;95565.56;;;33.88;24.54
9261;BME280;4667;42.726;23.252;2023-09-18T11:00:21;95579.66;;;33.90;24.44
9261;BME280;4667;42.726;23.252;2023-09-18T11:02:51;95576.97;;;33.94;24.35
9261;BME280;4667;42.726;23.252;2023-09-18T11:05:29;95551.31;;;33.11;24.77
9261;BME280;4667;42.726;23.252;2023-09-18T11:08:24;95561.56;;;32.04;26.35
9261;BME280;4667;42.726;23.252;2023-09-18T11:10:56;95581.09;;;31.69;27.74
9261;BME280;4667;42.726;23.252;2023-09-18T11:13:31;95562.25;;;31.94;27.56
9261;BME280;4667;42.726;23.252;2023-09-18T11:16:19;95563.38;;;32.92;26.04
9261;BME280;4667;42.726;23.252;2023-09-18T11:19:07;95564.66;;;33.27;25.85
9261;BME280;4667;42.726;23.252;2023-09-18T11:21:36;95562.06;;;33.77;24.79
9261;BME280;4667;42.726;23.252;2023-09-18T11:24:04;95553.91;;;33.95;24.24
9261;BME280;4667;42.726;23.252;2023-09-18T11:26:33;95557.81;;;34.15;24.62
9261;BME280;4667;42.726;23.252;2023-09-18T11:29:00;95533.16;;;34.40;23.42
9261;BME280;4667;42.726;23.252;2023-09-18T11:31:45;95552.91;;;35.15;23.32
9261;BME280;4667;42.726;23.252;2023-09-18T11:34:14;95548.66;;;35.07;23.33
9261;BME280;4667;42.726;23.252;2023-09-18T11:36:41;95544.25;;;35.24;23.04
9261;BME280;4667;42.726;23.252;2023-09-18T11:39:08;95542.34;;;35.14;22.76
9261;BME280;4667;42.726;23.252;2023-09-18T11:41:37;95513.81;;;35.04;22.63
9261;BME280;4667;42.726;23.252;2023-09-18T11:44:31;95528.94;;;35.34;22.83
9261;BME280;4667;42.726;23.252;2023-09-18T11:46:58;95530.91;;;35.96;22.38
9261;BME280;4667;42.726;23.252;2023-09-18T11:49:27;95518.66;;;36.08;21.73
9261;BME280;4667;42.726;23.252;2023-09-18T11:51:58;95520.72;;;35.97;22.04
9261;BME280;4667;42.726;23.252;2023-09-18T11:54:27;95516.78;;;36.39;21.51
9261;BME280;4667;42.726;23.252;2023-09-18T11:56:54;95533.59;;;35.44;21.84
9261;BME280;4667;42.726;23.252;2023-09-18T11:59:33;95524.41;;;34.95;22.94
9261;BME280;4667;42.726;23.252;2023-09-18T12:02:03;95520.53;;;34.82;23.16
9261;BME280;4667;42.726;23.252;2023-09-18T12:04:31;95523.69;;;34.73;23.22
9261;BME280;4667;42.726;23.252;2023-09-18T12:06:58;95529.59;;;34.43;23.25
9261;BME280;4667;42.726;23.252;2023-09-18T12:09:28;95521.78;;;34.59;23.48
9261;BME280;4667;42.726;23.252;2023-09-18T12:11:57;95529.59;;;34.57;23.22
9261;BME280;4667;42.726;23.252;2023-09-18T12:14:30;95508.91;;;33.81;23.90
9261;BME280;4667;42.726;23.252;2023-09-18T12:16:58;95527.50;;;33.11;25.37
9261;BME280;4667;42.726;23.252;2023-09-18T12:19:27;95511.84;;;32.94;25.02
9261;BME280;4667;42.726;23.252;2023-09-18T12:21:54;95485.78;;;33.36;24.95
9261;BME280;4667;42.726;23.252;2023-09-18T12:24:21;95509.16;;;33.16;25.57
9261;BME280;4667;42.726;23.252;2023-09-18T12:26:49;95514.13;;;32.85;25.89
9261;BME280;4667;42.726;23.252;2023-09-18T12:29:16;95506.97;;;32.55;26.51
9261;BME280;4667;42.726;23.252;2023-09-18T12:31:44;95504.06;;;33.00;26.46
9261;BME280;4667;42.726;23.252;2023-09-18T12:34:14;95497.16;;;33.52;25.60
9261;BME280;4667;42.726;23.252;2023-09-18T12:36:43;95499.91;;;33.45;25.18
9261;BME280;4667;42.726;23.252;2023-09-18T12:39:14;95507.75;;;33.79;25.17
9261;BME280;4667;42.726;23.252;2023-09-18T12:41:43;95507.38;;;34.05;24.63
9261;BME280;4667;42.726;23.252;2023-09-18T12:44:12;95505.78;;;33.61;24.99
9261;BME280;4667;42.726;23.252;2023-09-18T12:46:42;95505.00;;;33.82;24.55
9261;BME280;4667;42.726;23.252;2023-09-18T12:49:19;95504.63;;;33.70;24.86
9261;BME280;4667;42.726;23.252;2023-09-18T12:52:00;95499.91;;;33.77;24.79
9261;BME280;4667;42.726;23.252;2023-09-18T12:54:39;95489.38;;;33.58;24.54
9261;BME280;4667;42.726;23.252;2023-09-18T12:57:07;95491.31;;;34.22;24.38
9261;BME280;4667;42.726;23.252;2023-09-18T12:59:37;95490.13;;;34.37;23.94
9261;BME280;4667;42.726;23.252;2023-09-18T13:02:04;95488.22;;;34.16;23.91
9261;BME280;4667;42.726;23.252;2023-09-18T13:04:32;95491.66;;;34.56;23.41
9261;BME280;4667;42.726;23.252;2023-09-18T13:07:21;95492.84;;;34.51;23.87
9261;BME280;4667;42.726;23.252;2023-09-18T13:09:58;95483.88;;;35.31;22.63
9261;BME280;4667;42.726;23.252;2023-09-18T13:12:38;95480.00;;;35.25;22.16
9261;BME280;4667;42.726;23.252;2023-09-18T13:15:06;95475.94;;;35.55;21.77
9261;BME280;4667;42.726;23.252;2023-09-18T13:17:38;95478.44;;;35.28;22.39